createdAt,value
2024-02-24T00:02:26.181Z,22.80
2024-02-24T00:04:53.607Z,22.80
2024-02-24T00:10:53.558Z,22.80
2024-02-24T00:13:57.917Z,22.80
2024-02-24T00:16:25.167Z,22.80
2024-02-24T00:18:56.700Z,22.80
2024-02-24T00:21:23.938Z,22.80
2024-02-24T00:23:51.522Z,22.80
2024-02-24T00:26:18.601Z,22.80
2024-02-24T00:28:45.808Z,22.70
2024-02-24T00:31:14.018Z,22.70
2024-02-24T00:33:42.186Z,22.70
2024-02-24T00:36:09.593Z,22.70
2024-02-24T00:38:36.732Z,22.70
2024-02-24T00:41:04.539Z,22.70
2024-02-24T00:43:31.579Z,22.70
2024-02-24T00:45:58.623Z,22.70
2024-02-24T00:48:25.852Z,22.70
2024-02-24T00:50:53.485Z,22.70
2024-02-24T00:53:20.632Z,22.70
2024-02-24T00:55:47.705Z,22.70
2024-02-24T00:58:15.072Z,22.70
2024-02-24T01:00:42.045Z,22.70
2024-02-24T01:03:09.387Z,22.70
2024-02-24T01:05:36.638Z,22.70
2024-02-24T01:08:04.315Z,22.60
2024-02-24T01:10:32.635Z,22.60
2024-02-24T01:12:59.914Z,22.60
2024-02-24T01:15:27.733Z,22.60
2024-02-24T01:17:57.854Z,22.60
2024-02-24T01:20:26.930Z,22.60
2024-02-24T01:22:55.398Z,22.60
2024-02-24T01:25:22.708Z,22.60
2024-02-24T01:27:50.957Z,22.60
2024-02-24T01:30:18.726Z,22.60
2024-02-24T01:32:46.109Z,22.60
2024-02-24T01:35:16.049Z,22.60
2024-02-24T01:37:43.303Z,22.50
2024-02-24T01:40:10.893Z,22.50
2024-02-24T01:42:38.260Z,22.60
2024-02-24T01:45:06.161Z,22.60
2024-02-24T01:47:33.236Z,22.50
2024-02-24T01:50:02.870Z,22.50
2024-02-24T01:52:31.100Z,22.50
2024-02-24T01:55:03.902Z,22.50
2024-02-24T01:57:38.404Z,22.50
2024-02-24T02:00:10.404Z,22.50
2024-02-24T02:02:42.457Z,22.50
2024-02-24T02:05:12.707Z,22.50
2024-02-24T02:07:39.877Z,21.90
2024-02-24T02:10:07.497Z,22.40
2024-02-24T02:12:35.855Z,22.40
2024-02-24T02:15:05.046Z,22.40
2024-02-24T02:17:35.426Z,22.40
2024-02-24T02:20:06.651Z,22.40
2024-02-24T02:22:34.229Z,22.40
2024-02-24T02:25:01.358Z,22.40
2024-02-24T02:27:28.506Z,22.40
2024-02-24T02:29:56.824Z,22.40
2024-02-24T02:32:23.989Z,22.40
2024-02-24T02:34:51.178Z,22.40
2024-02-24T02:37:18.167Z,22.40
2024-02-24T02:39:45.693Z,22.30
2024-02-24T02:42:13.002Z,22.40
2024-02-24T02:44:40.143Z,22.40
2024-02-24T02:47:14.923Z,22.40
2024-02-24T02:49:47.331Z,22.40
2024-02-24T02:52:15.669Z,22.40
2024-02-24T02:54:42.802Z,22.40
2024-02-24T02:57:09.831Z,22.40
2024-02-24T02:59:37.193Z,22.30
2024-02-24T03:02:04.783Z,22.40
2024-02-24T03:04:34.496Z,22.30
2024-02-24T03:07:01.549Z,22.40
2024-02-24T03:09:28.597Z,22.30
2024-02-24T03:11:55.734Z,22.30
2024-02-24T03:14:23.057Z,22.30
2024-02-24T03:16:50.302Z,22.30
2024-02-24T03:19:17.916Z,22.30
2024-02-24T03:21:45.028Z,22.30
2024-02-24T03:24:12.131Z,22.30
2024-02-24T03:26:41.073Z,22.30
2024-02-24T03:29:09.190Z,22.30
2024-02-24T03:31:36.384Z,22.30
2024-02-24T03:34:03.847Z,22.30
2024-02-24T03:36:30.990Z,22.30
2024-02-24T03:38:58.118Z,22.30
2024-02-24T03:41:27.149Z,22.20
2024-02-24T03:43:54.226Z,22.20
2024-02-24T03:46:25.720Z,22.20
2024-02-24T03:48:52.916Z,22.20
2024-02-24T03:51:21.356Z,22.20
2024-02-24T03:53:48.961Z,22.20
2024-02-24T03:56:16.113Z,22.20
2024-02-24T03:58:45.253Z,22.20
2024-02-24T04:01:12.837Z,22.20
2024-02-24T04:03:40.458Z,22.20
2024-02-24T04:06:08.375Z,22.20
2024-02-24T04:08:35.990Z,22.20
2024-02-24T04:11:03.434Z,22.20
2024-02-24T04:13:30.564Z,22.20
2024-02-24T04:15:57.682Z,22.20
2024-02-24T04:18:24.795Z,22.20
2024-02-24T04:20:52.161Z,22.10
2024-02-24T04:23:19.838Z,22.10
2024-02-24T04:25:46.933Z,22.20
2024-02-24T04:28:15.090Z,22.10
2024-02-24T04:30:42.849Z,22.20
2024-02-24T04:33:09.997Z,22.10
2024-02-24T04:35:37.246Z,22.10
2024-02-24T04:38:07.873Z,22.10
2024-02-24T04:40:38.169Z,22.10
2024-02-24T04:43:05.421Z,22.10
2024-02-24T04:45:33.266Z,22.10
2024-02-24T04:48:01.108Z,22.10
2024-02-24T04:50:28.582Z,22.10
2024-02-24T04:52:56.945Z,22.10
2024-02-24T04:55:23.990Z,22.10
2024-02-24T04:57:51.301Z,22.10
2024-02-24T05:00:18.776Z,22.10
2024-02-24T05:02:45.952Z,22.10
2024-02-24T05:05:13.740Z,22.10
2024-02-24T05:07:41.062Z,22.10
2024-02-24T05:10:10.025Z,22.10
2024-02-24T05:12:37.552Z,22.10
2024-02-24T05:15:05.862Z,22.10
2024-02-24T05:17:33.133Z,22.10
2024-02-24T05:20:00.559Z,22.10
2024-02-24T05:22:28.494Z,22.10
2024-02-24T05:24:55.673Z,22.00
2024-02-24T05:27:22.658Z,22.00
2024-02-24T05:29:50.287Z,22.00
2024-02-24T05:32:18.289Z,22.00
2024-02-24T05:34:45.828Z,22.00
2024-02-24T05:37:13.177Z,22.00
2024-02-24T05:39:40.298Z,22.00
2024-02-24T05:42:08.705Z,22.00
2024-02-24T05:44:35.846Z,22.00
2024-02-24T05:47:02.987Z,22.00
2024-02-24T05:49:30.097Z,22.00
2024-02-24T05:51:57.228Z,22.00
2024-02-24T05:54:24.537Z,22.00
2024-02-24T05:56:51.976Z,22.00
2024-02-24T05:59:20.521Z,22.00
2024-02-24T06:01:48.022Z,22.00
2024-02-24T06:04:18.170Z,22.00
2024-02-24T06:06:49.071Z,22.00
2024-02-24T06:09:16.568Z,22.00
2024-02-24T06:11:43.826Z,22.00
2024-02-24T06:14:11.109Z,21.90
2024-02-24T06:16:38.552Z,22.00
2024-02-24T06:19:07.653Z,22.00
2024-02-24T06:21:36.253Z,22.00
2024-02-24T06:24:03.515Z,21.90
2024-02-24T06:26:30.582Z,22.00
2024-02-24T06:28:57.910Z,21.90
2024-02-24T06:31:25.179Z,22.00
2024-02-24T06:33:52.406Z,21.90
2024-02-24T06:36:19.491Z,21.90
2024-02-24T06:38:47.021Z,22.10
2024-02-24T06:41:15.527Z,22.00
2024-02-24T06:43:42.791Z,21.90
2024-02-24T06:46:11.061Z,22.00
2024-02-24T06:48:38.450Z,22.00
2024-02-24T06:51:06.048Z,21.90
2024-02-24T06:53:33.406Z,21.90
2024-02-24T06:56:08.314Z,21.90
2024-02-24T06:58:36.770Z,21.90
2024-02-24T07:01:04.889Z,21.90
2024-02-24T07:03:34.071Z,21.90
2024-02-24T07:06:02.805Z,21.90
2024-02-24T07:08:30.414Z,21.90
2024-02-24T07:10:57.672Z,21.90
2024-02-24T07:13:26.304Z,21.90
2024-02-24T07:15:53.356Z,21.90
2024-02-24T07:18:20.546Z,21.90
2024-02-24T07:20:48.404Z,21.90
2024-02-24T07:23:15.589Z,21.90
2024-02-24T07:25:43.234Z,21.90
2024-02-24T07:28:10.333Z,21.90
2024-02-24T07:30:37.480Z,21.90
2024-02-24T07:33:05.776Z,22.00
2024-02-24T07:35:33.039Z,21.90
2024-02-24T07:38:00.254Z,21.90
2024-02-24T07:40:28.606Z,21.90
2024-02-24T07:42:56.625Z,21.90
2024-02-24T07:45:26.929Z,21.90
2024-02-24T07:47:55.549Z,21.90
2024-02-24T07:50:22.988Z,21.90
2024-02-24T07:52:50.275Z,21.90
2024-02-24T07:55:17.575Z,21.90
2024-02-24T07:57:45.175Z,21.90
2024-02-24T08:00:13.785Z,21.90
2024-02-24T08:02:41.732Z,22.00
2024-02-24T08:05:09.928Z,22.00
2024-02-24T08:07:37.095Z,21.90
2024-02-24T08:10:05.255Z,22.00
2024-02-24T08:12:32.552Z,22.00
2024-02-24T08:15:00.548Z,22.00
2024-02-24T08:17:27.989Z,22.00
2024-02-24T08:19:55.424Z,22.00
2024-02-24T08:22:22.666Z,22.00
2024-02-24T08:24:49.869Z,22.00
2024-02-24T08:27:17.784Z,22.10
2024-02-24T08:29:45.482Z,22.00
2024-02-24T08:32:13.052Z,22.00
2024-02-24T08:34:41.596Z,22.10
2024-02-24T08:37:08.916Z,22.00
2024-02-24T08:39:36.171Z,22.10
2024-02-24T08:42:04.177Z,22.10
2024-02-24T08:44:31.462Z,22.00
2024-02-24T08:46:58.855Z,22.10
2024-02-24T08:49:26.236Z,22.10
2024-02-24T08:51:53.798Z,22.10
2024-02-24T08:54:22.433Z,22.10
2024-02-24T08:56:49.872Z,22.10
2024-02-24T08:59:17.200Z,22.10
2024-02-24T09:01:44.944Z,22.10
2024-02-24T09:04:14.808Z,22.10
2024-02-24T09:06:43.214Z,22.10
2024-02-24T09:09:13.530Z,22.10
2024-02-24T09:11:41.732Z,22.10
2024-02-24T09:14:09.219Z,22.10
2024-02-24T09:16:36.881Z,22.00
2024-02-24T09:19:06.743Z,22.10
2024-02-24T09:21:34.579Z,22.10
2024-02-24T09:24:02.114Z,22.10
2024-02-24T09:26:30.682Z,22.10
2024-02-24T09:28:58.249Z,22.10
2024-02-24T09:31:29.808Z,22.00
2024-02-24T09:33:58.113Z,22.10
2024-02-24T09:36:26.455Z,22.10
2024-02-24T09:38:54.261Z,22.10
2024-02-24T09:41:22.579Z,22.00
2024-02-24T09:43:51.766Z,22.00
2024-02-24T09:46:19.382Z,22.00
2024-02-24T09:48:52.960Z,22.10
2024-02-24T09:51:20.585Z,22.10
2024-02-24T09:53:48.312Z,22.10
2024-02-24T09:56:24.265Z,22.10
2024-02-24T09:58:55.223Z,22.10
2024-02-24T10:01:22.646Z,22.10
2024-02-24T10:03:51.224Z,22.10
2024-02-24T10:06:18.980Z,22.10
2024-02-24T10:08:46.468Z,22.10
2024-02-24T10:11:15.101Z,22.20
2024-02-24T10:13:45.372Z,22.20
2024-02-24T10:16:13.882Z,22.30
2024-02-24T10:18:42.554Z,22.30
2024-02-24T10:21:11.539Z,22.30
2024-02-24T10:23:38.934Z,22.40
2024-02-24T10:26:08.543Z,22.40
2024-02-24T10:28:37.423Z,22.40
2024-02-24T10:31:05.786Z,22.40
2024-02-24T10:33:38.243Z,22.50
2024-02-24T10:36:09.262Z,22.60
2024-02-24T10:38:48.283Z,22.60
2024-02-24T10:41:25.699Z,22.70
2024-02-24T10:44:09.758Z,22.70
2024-02-24T10:46:43.977Z,22.80
2024-02-24T10:49:16.818Z,22.80
2024-02-24T10:51:47.731Z,22.90
2024-02-24T10:54:30.726Z,22.90
2024-02-24T10:57:03.618Z,23.00
2024-02-24T10:59:33.467Z,23.00
2024-02-24T11:02:07.449Z,23.10
2024-02-24T11:04:37.545Z,23.10
2024-02-24T11:07:08.832Z,23.10
2024-02-24T11:09:40.448Z,23.30
2024-02-24T11:12:15.745Z,23.30
2024-02-24T11:14:48.237Z,23.40
2024-02-24T11:17:48.687Z,23.60
2024-02-24T11:20:41.324Z,23.70
2024-02-24T11:23:35.698Z,23.70
2024-02-24T11:26:12.528Z,23.80
2024-02-24T11:29:02.700Z,24.00
2024-02-24T11:31:36.745Z,24.00
2024-02-24T11:34:08.636Z,24.00
2024-02-24T11:36:39.970Z,24.10
2024-02-24T11:39:13.822Z,24.10
2024-02-24T11:41:42.544Z,24.10
2024-02-24T11:44:12.704Z,24.10
2024-02-24T11:46:42.114Z,24.10
2024-02-24T11:49:12.130Z,24.10
2024-02-24T11:51:42.943Z,24.10
2024-02-24T11:54:12.680Z,24.00
2024-02-24T11:56:41.289Z,24.00
2024-02-24T11:59:11.641Z,24.00
2024-02-24T12:01:39.533Z,23.90
2024-02-24T12:04:07.866Z,23.80
2024-02-24T12:06:36.650Z,23.80
2024-02-24T12:09:04.714Z,23.70
2024-02-24T12:11:33.243Z,23.70
2024-02-24T12:14:00.852Z,23.70
2024-02-24T12:16:29.463Z,23.60
2024-02-24T12:18:59.182Z,23.60
2024-02-24T12:21:29.379Z,23.60
2024-02-24T12:23:58.782Z,23.50
2024-02-24T12:26:28.793Z,23.50
2024-02-24T12:28:57.065Z,23.50
2024-02-24T12:31:25.635Z,23.40
2024-02-24T12:33:53.865Z,23.40
2024-02-24T12:36:21.535Z,23.40
2024-02-24T12:38:51.269Z,23.30
2024-02-24T12:41:19.997Z,23.30
2024-02-24T12:43:47.404Z,23.30
2024-02-24T12:46:15.275Z,23.20
2024-02-24T12:48:45.387Z,23.20
2024-02-24T12:51:13.932Z,23.20
2024-02-24T12:53:42.842Z,23.10
2024-02-24T12:56:10.716Z,23.10
2024-02-24T12:58:40.141Z,23.20
2024-02-24T13:01:09.878Z,23.10
2024-02-24T13:03:37.590Z,23.10
2024-02-24T13:06:05.741Z,23.20
2024-02-24T13:08:34.381Z,23.10
2024-02-24T13:11:02.682Z,23.10
2024-02-24T13:13:30.127Z,23.20
2024-02-24T13:15:58.231Z,23.20
2024-02-24T13:18:25.702Z,23.20
2024-02-24T13:20:53.392Z,23.20
2024-02-24T13:23:20.853Z,23.30
2024-02-24T13:25:48.430Z,23.40
2024-02-24T13:28:16.017Z,23.40
2024-02-24T13:30:43.616Z,23.50
2024-02-24T13:33:11.215Z,23.50
2024-02-24T13:35:38.523Z,23.60
2024-02-24T13:38:06.680Z,24.20
2024-02-24T13:40:34.683Z,23.50
2024-02-24T13:43:02.900Z,23.50
2024-02-24T13:45:30.067Z,23.50
2024-02-24T13:47:58.393Z,23.50
2024-02-24T13:50:26.312Z,23.50
2024-02-24T13:52:53.388Z,23.40
2024-02-24T13:55:21.464Z,23.40
2024-02-24T13:57:49.069Z,23.40
2024-02-24T14:00:17.150Z,23.40
2024-02-24T14:02:47.004Z,23.40
2024-02-24T14:05:14.648Z,23.30
2024-02-24T14:07:42.118Z,23.30
2024-02-24T14:10:09.933Z,23.20
2024-02-24T14:12:37.046Z,23.20
2024-02-24T14:15:05.265Z,23.20
2024-02-24T14:17:32.867Z,23.10
2024-02-24T14:20:05.713Z,23.10
2024-02-24T14:22:39.549Z,23.00
2024-02-24T14:25:07.130Z,23.00
2024-02-24T14:27:34.735Z,22.90
2024-02-24T14:30:02.053Z,22.90
2024-02-24T14:32:29.613Z,22.90
2024-02-24T14:34:57.451Z,23.00
2024-02-24T14:37:26.227Z,23.00
2024-02-24T14:39:53.709Z,23.00
2024-02-24T14:42:20.807Z,23.80
2024-02-24T14:44:48.698Z,23.10
2024-02-24T14:47:16.167Z,23.20
2024-02-24T14:49:43.551Z,23.20
2024-02-24T14:52:12.160Z,23.30
2024-02-24T14:54:42.360Z,23.30
2024-02-24T14:57:13.623Z,23.30
2024-02-24T14:59:42.351Z,23.40
2024-02-24T15:02:13.413Z,23.40
2024-02-24T15:04:41.661Z,23.40
2024-02-24T15:07:08.889Z,23.40
2024-02-24T15:09:37.052Z,23.40
2024-02-24T15:12:05.192Z,23.40
2024-02-24T15:14:32.890Z,23.40
2024-02-24T15:17:00.674Z,23.40
2024-02-24T15:19:31.894Z,23.40
2024-02-24T15:22:00.089Z,23.30
2024-02-24T15:24:27.557Z,23.30
2024-02-24T15:26:58.587Z,23.20
2024-02-24T15:29:25.862Z,23.30
2024-02-24T15:31:54.567Z,23.20
2024-02-24T15:34:23.606Z,23.20
2024-02-24T15:36:52.448Z,23.10
2024-02-24T15:39:20.615Z,23.10
2024-02-24T15:41:49.759Z,23.10
2024-02-24T15:44:16.955Z,23.10
2024-02-24T15:46:47.699Z,23.10
2024-02-24T15:49:16.058Z,23.00
2024-02-24T15:51:43.894Z,23.00
2024-02-24T15:54:11.817Z,23.00
2024-02-24T15:56:39.294Z,22.90
2024-02-24T15:59:07.078Z,23.00
2024-02-24T16:01:34.629Z,22.90
2024-02-24T16:04:02.149Z,22.90
2024-02-24T16:06:29.724Z,22.90
2024-02-24T16:08:58.670Z,22.80
2024-02-24T16:11:29.790Z,22.80
2024-02-24T16:13:59.939Z,22.80
2024-02-24T16:16:28.245Z,22.90
2024-02-24T16:18:56.253Z,22.80
2024-02-24T16:21:23.989Z,22.90
2024-02-24T16:23:51.792Z,22.90
2024-02-24T16:26:20.064Z,22.90
2024-02-24T16:28:47.930Z,22.90
2024-02-24T16:31:15.772Z,22.90
2024-02-24T16:33:43.609Z,22.90
2024-02-24T16:36:12.592Z,22.90
2024-02-24T16:38:40.155Z,22.90
2024-02-24T16:41:07.532Z,22.80
2024-02-24T16:43:35.214Z,22.80
2024-02-24T16:46:04.118Z,22.80
2024-02-24T16:48:32.598Z,22.70
2024-02-24T16:51:00.303Z,22.70
2024-02-24T16:53:27.869Z,22.60
2024-02-24T16:55:56.059Z,22.60
2024-02-24T16:58:24.224Z,22.60
2024-02-24T17:00:52.509Z,22.60
2024-02-24T17:03:20.740Z,22.50
2024-02-24T17:05:48.705Z,22.50
2024-02-24T17:08:19.230Z,22.50
2024-02-24T17:10:48.364Z,22.40
2024-02-24T17:13:17.042Z,22.40
2024-02-24T17:15:45.495Z,22.40
2024-02-24T17:18:18.419Z,22.30
2024-02-24T17:20:49.043Z,22.30
2024-02-24T17:23:16.490Z,22.30
2024-02-24T17:25:44.066Z,22.30
2024-02-24T17:28:14.287Z,22.30
2024-02-24T17:30:42.194Z,22.20
2024-02-24T17:33:11.124Z,22.20
2024-02-24T17:35:38.483Z,22.20
2024-02-24T17:38:07.780Z,22.20
2024-02-24T17:40:36.049Z,22.20
2024-02-24T17:43:04.279Z,22.10
2024-02-24T17:45:32.518Z,22.10
2024-02-24T17:48:00.783Z,22.10
2024-02-24T17:50:28.515Z,22.10
2024-02-24T17:52:56.424Z,22.10
2024-02-24T17:55:23.968Z,22.00
2024-02-24T17:57:51.422Z,22.00
2024-02-24T18:00:19.248Z,22.00
2024-02-24T18:02:47.111Z,22.00
2024-02-24T18:05:20.344Z,22.00
2024-02-24T18:07:51.050Z,22.00
2024-02-24T18:10:19.075Z,22.00
2024-02-24T18:12:47.208Z,22.00
2024-02-24T18:15:15.285Z,22.00
2024-02-24T18:17:43.853Z,22.00
2024-02-24T18:20:12.852Z,22.00
2024-02-24T18:22:44.944Z,22.00
2024-02-24T18:25:13.789Z,22.00
2024-02-24T18:27:41.595Z,22.00
2024-02-24T18:30:10.044Z,22.00
2024-02-24T18:32:38.504Z,22.00
2024-02-24T18:35:07.026Z,22.00
2024-02-24T18:37:34.894Z,22.00
2024-02-24T18:40:06.642Z,22.10
2024-02-24T18:42:35.003Z,22.00
2024-02-24T18:45:02.786Z,22.10
2024-02-24T18:47:31.241Z,22.10
2024-02-24T18:50:00.010Z,22.10
2024-02-24T18:52:28.531Z,22.00
2024-02-24T18:54:56.206Z,22.10
2024-02-24T18:57:25.340Z,22.10
2024-02-24T18:59:54.452Z,22.10
2024-02-24T19:02:22.001Z,22.00
2024-02-24T19:04:51.598Z,22.00
2024-02-24T19:07:21.911Z,22.00
2024-02-24T19:09:49.953Z,22.00
2024-02-24T19:12:19.046Z,22.10
2024-02-24T19:14:52.391Z,22.00
2024-02-24T19:17:25.748Z,22.00
2024-02-24T19:19:55.101Z,22.00
2024-02-24T19:22:23.684Z,22.00
2024-02-24T19:24:51.471Z,22.00
2024-02-24T19:27:19.421Z,22.00
2024-02-24T19:29:47.251Z,22.00
2024-02-24T19:32:14.936Z,22.00
2024-02-24T19:34:44.537Z,22.00
2024-02-24T19:37:12.581Z,21.90
2024-02-24T19:39:40.263Z,21.90
2024-02-24T19:42:08.454Z,21.90
2024-02-24T19:44:38.473Z,21.90
2024-02-24T19:47:10.751Z,21.90
2024-02-24T19:49:38.321Z,21.90
2024-02-24T19:52:06.709Z,21.90
2024-02-24T19:54:34.731Z,21.90
2024-02-24T19:57:02.572Z,21.90
2024-02-24T19:59:31.873Z,21.90
2024-02-24T20:02:00.997Z,21.80
2024-02-24T20:04:28.603Z,21.90
2024-02-24T20:06:56.733Z,21.80
2024-02-24T20:09:25.113Z,21.80
2024-02-24T20:11:52.972Z,21.80
2024-02-24T20:14:20.761Z,21.80
2024-02-24T20:16:48.367Z,21.80
2024-02-24T20:19:15.902Z,21.80
2024-02-24T20:21:44.248Z,21.80
2024-02-24T20:24:11.671Z,21.80
2024-02-24T20:26:39.129Z,21.80
2024-02-24T20:29:09.392Z,21.80
2024-02-24T20:31:37.099Z,21.80
2024-02-24T20:34:08.460Z,21.70
2024-02-24T20:36:37.284Z,21.70
2024-02-24T20:39:07.407Z,21.80
2024-02-24T20:41:40.895Z,21.70
2024-02-24T20:44:08.931Z,21.70
2024-02-24T20:46:44.040Z,21.80
2024-02-24T20:49:11.658Z,21.80
2024-02-24T20:51:39.523Z,21.70
2024-02-24T20:54:07.370Z,21.70
2024-02-24T20:56:35.487Z,21.70
2024-02-24T20:59:04.232Z,21.70
2024-02-24T21:01:33.254Z,21.70
2024-02-24T21:04:01.144Z,23.90
2024-02-24T21:06:29.452Z,21.80
2024-02-24T21:08:57.560Z,21.70
2024-02-24T21:11:25.185Z,21.70
2024-02-24T21:13:53.529Z,21.70
2024-02-24T21:16:21.066Z,21.70
2024-02-24T21:18:50.714Z,21.70
2024-02-24T21:21:18.448Z,21.70
2024-02-24T21:23:48.311Z,21.70
2024-02-24T21:26:16.705Z,20.60
2024-02-24T21:28:44.794Z,21.70
2024-02-24T21:31:12.715Z,21.60
2024-02-24T21:36:08.564Z,21.60
2024-02-24T21:38:36.119Z,21.60
2024-02-24T21:41:04.620Z,21.60
2024-02-24T21:43:33.006Z,21.60
2024-02-24T21:46:00.650Z,21.60
2024-02-24T21:48:28.450Z,21.60
2024-02-24T21:50:56.199Z,21.60
2024-02-24T21:53:23.875Z,21.60
2024-02-24T21:55:52.379Z,21.60
2024-02-24T21:58:20.089Z,21.60
2024-02-24T22:00:50.200Z,21.60
2024-02-24T22:03:18.289Z,21.60
2024-02-24T22:05:46.057Z,21.60
2024-02-24T22:08:13.666Z,21.60
2024-02-24T22:10:43.118Z,21.60
2024-02-24T22:13:12.525Z,21.60
2024-02-24T22:15:41.016Z,21.60
2024-02-24T22:18:09.060Z,21.60
2024-02-24T22:20:37.231Z,21.50
2024-02-24T22:23:05.957Z,21.60
2024-02-24T22:25:33.996Z,21.60
2024-02-24T22:28:01.996Z,21.60
2024-02-24T22:30:31.464Z,21.50
2024-02-24T22:32:59.666Z,21.60
2024-02-24T22:35:27.249Z,21.50
2024-02-24T22:37:55.329Z,21.50
2024-02-24T22:40:23.103Z,21.50
2024-02-24T22:42:50.797Z,21.50
2024-02-24T22:45:18.849Z,21.50
2024-02-24T22:47:48.681Z,21.50
2024-02-24T22:50:17.672Z,21.50
2024-02-24T22:52:45.146Z,21.50
2024-02-24T22:55:12.819Z,21.50
2024-02-24T22:57:44.107Z,21.40
2024-02-24T23:00:15.438Z,21.40
2024-02-24T23:02:43.481Z,21.50
2024-02-24T23:05:14.990Z,21.40
2024-02-24T23:07:43.381Z,21.50
2024-02-24T23:10:12.833Z,21.40
2024-02-24T23:12:40.317Z,21.40
2024-02-24T23:15:08.769Z,21.50
2024-02-24T23:17:37.905Z,21.40
2024-02-24T23:20:07.991Z,21.40
2024-02-24T23:22:35.463Z,21.40
2024-02-24T23:25:02.923Z,21.40
2024-02-24T23:27:30.889Z,21.40
2024-02-24T23:29:58.799Z,21.40
2024-02-24T23:32:26.279Z,21.40
2024-02-24T23:34:53.396Z,21.40
2024-02-24T23:37:21.434Z,21.40
2024-02-24T23:39:48.775Z,21.70
2024-02-24T23:42:16.095Z,21.40
2024-02-24T23:44:43.837Z,21.40
2024-02-24T23:47:11.425Z,21.40
2024-02-24T23:49:39.111Z,21.30
2024-02-24T23:52:07.291Z,21.40
2024-02-24T23:54:35.337Z,21.30
2024-02-24T23:57:02.672Z,21.40
2024-02-24T23:59:29.904Z,21.40
